createdAt,value
2023-03-18T00:00:38.350Z,961.13
2023-03-18T00:01:28.327Z,961.18
2023-03-18T00:02:18.377Z,961.19
2023-03-18T00:03:08.317Z,961.24
2023-03-18T00:03:58.342Z,961.21
2023-03-18T00:04:48.294Z,961.18
2023-03-18T00:05:38.294Z,961.14
2023-03-18T00:06:28.295Z,961.13
2023-03-18T00:07:18.292Z,961.13
2023-03-18T00:08:08.273Z,961.16
2023-03-18T00:08:58.257Z,961.22
2023-03-18T00:09:48.246Z,961.21
2023-03-18T00:10:38.254Z,961.26
2023-03-18T00:11:28.217Z,961.13
2023-03-18T00:12:18.224Z,961.15
2023-03-18T00:13:08.214Z,961.19
2023-03-18T00:13:58.212Z,961.19
2023-03-18T00:14:48.201Z,961.26
2023-03-18T00:15:38.251Z,961.20
2023-03-18T00:16:28.263Z,961.23
2023-03-18T00:17:18.150Z,961.19
2023-03-18T00:18:08.159Z,961.24
2023-03-18T00:18:58.142Z,961.26
2023-03-18T00:19:48.125Z,961.20
2023-03-18T00:20:38.126Z,961.29
2023-03-18T00:21:28.099Z,961.23
2023-03-18T00:22:18.113Z,961.17
2023-03-18T00:23:08.090Z,961.20
2023-03-18T00:23:58.080Z,961.22
2023-03-18T00:24:48.095Z,961.19
2023-03-18T00:25:38.057Z,961.22
2023-03-18T00:26:28.070Z,961.24
2023-03-18T00:27:18.068Z,961.13
2023-03-18T00:28:08.062Z,961.19
2023-03-18T00:28:58.032Z,961.23
2023-03-18T00:29:48.027Z,961.27
2023-03-18T00:30:38.028Z,961.20
2023-03-18T00:31:28.062Z,961.23
2023-03-18T00:32:18.001Z,961.20
2023-03-18T00:33:08.090Z,961.22
2023-03-18T00:33:57.988Z,961.14
2023-03-18T00:34:47.955Z,961.19
2023-03-18T00:35:38.048Z,961.24
2023-03-18T00:36:27.971Z,961.29
2023-03-18T00:37:17.937Z,961.32
2023-03-18T00:38:07.939Z,961.29
2023-03-18T00:38:58.092Z,961.25
2023-03-18T00:39:47.927Z,961.18
2023-03-18T00:40:37.900Z,961.21
2023-03-18T00:41:27.919Z,961.26
2023-03-18T00:42:17.897Z,961.23
2023-03-18T00:43:07.882Z,961.26
2023-03-18T00:43:57.867Z,961.25
2023-03-18T00:44:47.854Z,961.27
2023-03-18T00:45:37.850Z,961.22
2023-03-18T00:46:27.970Z,961.25
2023-03-18T00:47:17.830Z,961.18
2023-03-18T00:48:07.827Z,961.19
2023-03-18T00:48:57.955Z,961.18
2023-03-18T00:49:47.790Z,961.22
2023-03-18T00:50:37.782Z,961.24
2023-03-18T00:51:27.778Z,961.26
2023-03-18T00:52:17.785Z,961.25
2023-03-18T00:53:07.765Z,961.27
2023-03-18T00:53:57.749Z,961.33
2023-03-18T00:54:47.736Z,961.33
2023-03-18T00:55:37.741Z,961.34
2023-03-18T00:56:27.751Z,961.24
2023-03-18T00:57:17.731Z,961.23
2023-03-18T00:58:07.718Z,961.25
2023-03-18T00:58:57.684Z,961.21
2023-03-18T00:59:47.713Z,961.23
2023-03-18T01:00:37.712Z,961.14
2023-03-18T01:01:27.798Z,961.17
2023-03-18T01:02:17.685Z,961.17
2023-03-18T01:03:07.653Z,961.19
2023-03-18T01:03:57.655Z,961.16
2023-03-18T01:04:47.624Z,961.10
2023-03-18T01:05:37.625Z,961.13
2023-03-18T01:06:27.619Z,961.15
2023-03-18T01:07:17.611Z,961.07
2023-03-18T01:08:07.595Z,961.12
2023-03-18T01:08:57.598Z,961.14
2023-03-18T01:09:47.593Z,961.10
2023-03-18T01:10:37.582Z,961.09
2023-03-18T01:11:27.579Z,961.02
2023-03-18T01:12:17.547Z,961.05
2023-03-18T01:13:07.536Z,961.00
2023-03-18T01:13:57.534Z,961.05
2023-03-18T01:14:47.539Z,961.07
2023-03-18T01:15:37.507Z,961.01
2023-03-18T01:16:27.565Z,960.98
2023-03-18T01:17:17.505Z,960.97
2023-03-18T01:18:07.492Z,960.97
2023-03-18T01:18:57.499Z,960.98
2023-03-18T01:19:47.467Z,961.07
2023-03-18T01:20:37.453Z,961.06
2023-03-18T01:21:27.456Z,961.01
2023-03-18T01:22:17.432Z,961.03
2023-03-18T01:23:07.443Z,961.01
2023-03-18T01:23:57.411Z,961.03
2023-03-18T01:24:47.432Z,960.96
2023-03-18T01:25:37.416Z,960.93
2023-03-18T01:26:27.406Z,960.99
2023-03-18T01:27:17.393Z,960.97
2023-03-18T01:28:07.375Z,960.96
2023-03-18T01:28:57.377Z,960.92
2023-03-18T01:29:47.353Z,960.88
2023-03-18T01:30:37.364Z,960.93
2023-03-18T01:31:27.377Z,960.93
2023-03-18T01:32:17.349Z,960.90
2023-03-18T01:33:07.388Z,960.99
2023-03-18T01:33:57.312Z,960.96
2023-03-18T01:34:47.310Z,960.94
2023-03-18T01:35:37.323Z,960.93
2023-03-18T01:36:27.300Z,960.91
2023-03-18T01:37:17.272Z,960.90
2023-03-18T01:38:07.265Z,960.91
2023-03-18T01:38:57.240Z,960.88
2023-03-18T01:39:47.238Z,960.89
2023-03-18T01:40:37.248Z,960.95
2023-03-18T01:41:27.218Z,960.91
2023-03-18T01:42:17.216Z,960.88
2023-03-18T01:43:07.236Z,960.81
2023-03-18T01:43:57.190Z,960.79
2023-03-18T01:44:47.191Z,960.72
2023-03-18T01:45:37.228Z,960.69
2023-03-18T01:46:27.184Z,960.73
2023-03-18T01:47:17.146Z,960.69
2023-03-18T01:48:07.156Z,960.69
2023-03-18T01:48:57.143Z,960.73
2023-03-18T01:49:47.129Z,960.79
2023-03-18T01:50:37.122Z,960.78
2023-03-18T01:51:27.142Z,960.79
2023-03-18T01:52:17.105Z,960.91
2023-03-18T01:53:07.089Z,960.88
2023-03-18T01:53:57.087Z,960.86
2023-03-18T01:54:47.094Z,960.88
2023-03-18T01:55:37.061Z,960.79
2023-03-18T01:56:27.048Z,960.81
2023-03-18T01:57:17.056Z,960.81
2023-03-18T01:58:07.042Z,960.84
2023-03-18T01:58:57.023Z,960.85
2023-03-18T01:59:47.033Z,960.75
2023-03-18T02:00:37.092Z,960.72
2023-03-18T02:01:27.108Z,960.74
2023-03-18T02:02:16.991Z,960.70
2023-03-18T02:03:06.992Z,960.67
2023-03-18T02:03:56.975Z,960.69
2023-03-18T02:04:46.954Z,960.71
2023-03-18T02:05:36.965Z,960.68
2023-03-18T02:06:26.944Z,960.71
2023-03-18T02:07:16.928Z,960.77
2023-03-18T02:08:06.920Z,960.70
2023-03-18T02:08:56.923Z,960.77
2023-03-18T02:09:46.912Z,960.80
2023-03-18T02:10:36.894Z,960.74
2023-03-18T02:11:32.086Z,960.77
2023-03-18T02:12:16.874Z,960.81
2023-03-18T02:13:06.875Z,960.76
2023-03-18T02:13:56.856Z,960.83
2023-03-18T02:14:46.857Z,960.82
2023-03-18T02:15:36.841Z,960.79
2023-03-18T02:16:26.860Z,960.86
2023-03-18T02:17:16.833Z,960.81
2023-03-18T02:18:06.837Z,960.82
2023-03-18T02:18:56.836Z,960.81
2023-03-18T02:19:46.795Z,960.79
2023-03-18T02:20:36.793Z,960.80
2023-03-18T02:21:26.840Z,960.76
2023-03-18T02:22:16.765Z,960.82
2023-03-18T02:23:06.755Z,960.77
2023-03-18T02:23:56.754Z,960.78
2023-03-18T02:24:46.746Z,960.80
2023-03-18T02:25:36.723Z,960.76
2023-03-18T02:26:26.713Z,960.79
2023-03-18T02:27:16.722Z,960.83
2023-03-18T02:28:06.692Z,960.80
2023-03-18T02:28:56.716Z,960.83
2023-03-18T02:29:46.691Z,960.87
2023-03-18T02:30:36.712Z,960.84
2023-03-18T02:31:26.677Z,960.85
2023-03-18T02:32:16.663Z,960.90
2023-03-18T02:33:06.670Z,960.88
2023-03-18T02:33:56.648Z,960.86
2023-03-18T02:34:46.641Z,960.88
2023-03-18T02:35:36.652Z,960.96
2023-03-18T02:36:26.610Z,961.00
2023-03-18T02:37:16.612Z,961.06
2023-03-18T02:38:06.591Z,961.05
2023-03-18T02:38:56.591Z,961.02
2023-03-18T02:39:46.593Z,961.04
2023-03-18T02:40:36.591Z,961.04
2023-03-18T02:41:26.549Z,961.05
2023-03-18T02:42:16.559Z,961.11
2023-03-18T02:43:06.529Z,961.16
2023-03-18T02:43:56.530Z,961.12
2023-03-18T02:44:46.533Z,961.15
2023-03-18T02:45:36.524Z,961.17
2023-03-18T02:46:26.530Z,961.19
2023-03-18T02:47:16.490Z,961.20
2023-03-18T02:48:06.489Z,961.28
2023-03-18T02:48:56.491Z,961.23
2023-03-18T02:49:46.462Z,961.21
2023-03-18T02:50:36.461Z,961.27
2023-03-18T02:51:26.451Z,961.25
2023-03-18T02:52:16.460Z,961.25
2023-03-18T02:53:06.439Z,961.23
2023-03-18T02:53:56.425Z,961.23
2023-03-18T02:54:46.417Z,961.24
2023-03-18T02:55:36.391Z,961.27
2023-03-18T02:56:26.392Z,961.27
2023-03-18T02:57:16.401Z,961.29
2023-03-18T02:58:06.361Z,961.27
2023-03-18T02:58:56.361Z,961.28
2023-03-18T02:59:46.371Z,961.26
2023-03-18T03:00:36.349Z,961.26
2023-03-18T03:01:26.363Z,961.29
2023-03-18T03:02:16.374Z,961.29
2023-03-18T03:03:06.474Z,961.20
2023-03-18T03:03:56.334Z,961.23
2023-03-18T03:04:46.301Z,961.26
2023-03-18T03:05:36.313Z,961.23
2023-03-18T03:06:26.289Z,961.24
2023-03-18T03:07:16.269Z,961.30
2023-03-18T03:08:06.271Z,961.32
2023-03-18T03:08:56.264Z,961.32
2023-03-18T03:09:46.245Z,961.33
2023-03-18T03:10:36.265Z,961.31
2023-03-18T03:11:26.218Z,961.32
2023-03-18T03:12:16.214Z,961.33
2023-03-18T03:13:06.202Z,961.30
2023-03-18T03:13:56.190Z,961.31
2023-03-18T03:14:46.179Z,961.30
2023-03-18T03:15:36.261Z,961.34
2023-03-18T03:16:26.166Z,961.36
2023-03-18T03:17:16.158Z,961.28
2023-03-18T03:18:06.163Z,961.34
2023-03-18T03:18:56.141Z,961.34
2023-03-18T03:19:46.147Z,961.32
2023-03-18T03:20:36.144Z,961.35
2023-03-18T03:21:26.129Z,961.34
2023-03-18T03:22:16.101Z,961.31
2023-03-18T03:23:06.173Z,961.34
2023-03-18T03:23:56.102Z,961.37
2023-03-18T03:24:46.077Z,961.32
2023-03-18T03:25:36.085Z,961.32
2023-03-18T03:26:26.066Z,961.36
2023-03-18T03:27:16.053Z,961.35
2023-03-18T03:28:06.054Z,961.37
2023-03-18T03:28:56.028Z,961.38
2023-03-18T03:29:46.019Z,961.43
2023-03-18T03:30:36.037Z,961.38
2023-03-18T03:31:26.082Z,961.40
2023-03-18T03:32:16.009Z,961.42
2023-03-18T03:33:06.028Z,961.44
2023-03-18T03:33:55.979Z,961.46
2023-03-18T03:34:45.978Z,961.45
2023-03-18T03:35:36.010Z,961.46
2023-03-18T03:36:25.944Z,961.44
2023-03-18T03:37:15.965Z,961.47
2023-03-18T03:38:05.941Z,961.47
2023-03-18T03:38:55.950Z,961.50
2023-03-18T03:39:45.909Z,961.45
2023-03-18T03:40:35.905Z,961.44
2023-03-18T03:41:25.905Z,961.47
2023-03-18T03:42:15.903Z,961.53
2023-03-18T03:43:05.875Z,961.49
2023-03-18T03:43:55.883Z,961.54
2023-03-18T03:44:45.899Z,961.52
2023-03-18T03:45:35.864Z,961.55
2023-03-18T03:46:25.859Z,961.54
2023-03-18T03:47:15.841Z,961.54
2023-03-18T03:48:05.814Z,961.57
2023-03-18T03:48:55.806Z,961.58
2023-03-18T03:49:45.816Z,961.57
2023-03-18T03:50:35.807Z,961.53
2023-03-18T03:51:25.777Z,961.55
2023-03-18T03:52:15.786Z,961.55
2023-03-18T03:53:05.787Z,961.61
2023-03-18T03:53:55.766Z,961.63
2023-03-18T03:54:45.763Z,961.59
2023-03-18T03:55:35.734Z,961.56
2023-03-18T03:56:25.725Z,961.59
2023-03-18T03:57:15.726Z,961.62
2023-03-18T03:58:05.706Z,961.60
2023-03-18T03:58:55.717Z,961.61
2023-03-18T03:59:45.731Z,961.61
2023-03-18T04:00:35.714Z,961.59
2023-03-18T04:01:25.656Z,961.59
2023-03-18T04:02:15.710Z,961.64
2023-03-18T04:03:05.641Z,961.65
2023-03-18T04:03:55.700Z,961.62
2023-03-18T04:04:45.645Z,961.67
2023-03-18T04:05:35.624Z,961.64
2023-03-18T04:06:25.604Z,961.64
2023-03-18T04:07:15.606Z,961.62
2023-03-18T04:08:05.612Z,961.64
2023-03-18T04:08:55.585Z,961.63
2023-03-18T04:09:45.600Z,961.66
2023-03-18T04:10:35.578Z,961.67
2023-03-18T04:11:25.553Z,961.65
2023-03-18T04:12:15.561Z,961.70
2023-03-18T04:13:05.564Z,961.69
2023-03-18T04:13:55.530Z,961.66
2023-03-18T04:14:45.543Z,961.69
2023-03-18T04:15:35.520Z,961.63
2023-03-18T04:16:25.544Z,961.65
2023-03-18T04:17:15.494Z,961.68
2023-03-18T04:18:05.517Z,961.63
2023-03-18T04:18:55.478Z,961.64
2023-03-18T04:19:45.501Z,961.67
2023-03-18T04:20:35.476Z,961.66
2023-03-18T04:21:25.444Z,961.67
2023-03-18T04:22:15.433Z,961.68
2023-03-18T04:23:05.427Z,961.68
2023-03-18T04:23:55.423Z,961.64
2023-03-18T04:24:45.452Z,961.66
2023-03-18T04:25:35.447Z,961.67
2023-03-18T04:26:25.380Z,961.69
2023-03-18T04:27:15.415Z,961.64
2023-03-18T04:28:05.391Z,961.67
2023-03-18T04:28:55.358Z,961.67
2023-03-18T04:29:45.377Z,961.67
2023-03-18T04:30:35.347Z,961.71
2023-03-18T04:31:25.366Z,961.66
2023-03-18T04:32:15.334Z,961.69
2023-03-18T04:33:05.355Z,961.72
2023-03-18T04:33:55.314Z,961.68
2023-03-18T04:34:45.318Z,961.69
2023-03-18T04:35:35.329Z,961.67
2023-03-18T04:36:25.279Z,961.68
2023-03-18T04:37:15.266Z,961.68
2023-03-18T04:38:05.269Z,961.70
2023-03-18T04:38:55.276Z,961.67
2023-03-18T04:39:45.226Z,961.69
2023-03-18T04:40:35.347Z,961.69
2023-03-18T04:41:25.231Z,961.70
2023-03-18T04:42:15.211Z,961.72
2023-03-18T04:43:05.202Z,961.74
2023-03-18T04:43:55.193Z,961.75
2023-03-18T04:44:45.177Z,961.75
2023-03-18T04:45:35.194Z,961.76
2023-03-18T04:46:25.240Z,961.77
2023-03-18T04:47:15.163Z,961.79
2023-03-18T04:48:05.173Z,961.79
2023-03-18T04:48:55.144Z,961.81
2023-03-18T04:49:45.130Z,961.79
2023-03-18T04:50:35.148Z,961.82
2023-03-18T04:51:25.130Z,961.81
2023-03-18T04:52:15.102Z,961.81
2023-03-18T04:53:05.104Z,961.77
2023-03-18T04:53:55.102Z,961.77
2023-03-18T04:54:45.069Z,961.76
2023-03-18T04:55:35.198Z,961.76
2023-03-18T04:56:25.074Z,961.80
2023-03-18T04:57:15.051Z,961.82
2023-03-18T04:58:05.070Z,961.80
2023-03-18T04:58:55.031Z,961.80
2023-03-18T04:59:45.009Z,961.85
2023-03-18T05:00:35.085Z,961.83
2023-03-18T05:01:25.020Z,961.86
2023-03-18T05:02:14.990Z,961.81
2023-03-18T05:03:04.982Z,961.90
2023-03-18T05:03:54.988Z,961.90
2023-03-18T05:04:44.993Z,961.83
2023-03-18T05:05:37.327Z,961.86
2023-03-18T05:06:24.949Z,961.82
2023-03-18T05:07:14.949Z,961.84
2023-03-18T05:08:04.950Z,961.83
2023-03-18T05:08:54.914Z,961.84
2023-03-18T05:09:44.911Z,961.84
2023-03-18T05:10:34.900Z,961.83
2023-03-18T05:11:24.895Z,961.82
2023-03-18T05:12:14.954Z,961.89
2023-03-18T05:13:04.888Z,961.89
2023-03-18T05:13:54.876Z,961.89
2023-03-18T05:14:44.865Z,961.90
2023-03-18T05:15:34.849Z,961.90
2023-03-18T05:16:24.921Z,961.84
2023-03-18T05:17:14.827Z,961.82
2023-03-18T05:18:04.842Z,961.86
2023-03-18T05:18:54.831Z,961.89
2023-03-18T05:19:44.810Z,961.88
2023-03-18T05:20:34.800Z,961.91
2023-03-18T05:21:24.777Z,961.94
2023-03-18T05:22:14.790Z,961.96
2023-03-18T05:23:04.768Z,961.97
2023-03-18T05:23:54.787Z,961.95
2023-03-18T05:24:44.747Z,961.99
2023-03-18T05:25:34.740Z,961.98
2023-03-18T05:26:24.733Z,962.00
2023-03-18T05:27:14.750Z,961.96
2023-03-18T05:28:04.709Z,962.04
2023-03-18T05:28:54.708Z,962.04
2023-03-18T05:29:44.707Z,961.99
2023-03-18T05:30:34.695Z,962.02
2023-03-18T05:31:24.730Z,961.97
2023-03-18T05:32:14.692Z,961.94
2023-03-18T05:33:04.690Z,961.96
2023-03-18T05:33:54.657Z,961.95
2023-03-18T05:34:44.624Z,961.99
2023-03-18T05:35:34.913Z,961.99
2023-03-18T05:36:24.659Z,961.99
2023-03-18T05:37:14.622Z,961.99
2023-03-18T05:38:04.605Z,961.97
2023-03-18T05:38:54.594Z,961.96
2023-03-18T05:39:45.113Z,961.98
2023-03-18T05:40:34.603Z,961.95
2023-03-18T05:41:24.571Z,962.00
2023-03-18T05:42:14.562Z,961.99
2023-03-18T05:43:04.531Z,962.00
2023-03-18T05:43:54.551Z,961.97
2023-03-18T05:44:44.540Z,962.03
2023-03-18T05:45:35.806Z,961.98
2023-03-18T05:46:24.549Z,962.01
2023-03-18T05:47:14.496Z,962.02
2023-03-18T05:48:04.479Z,962.03
2023-03-18T05:48:54.509Z,962.03
2023-03-18T05:49:44.469Z,962.04
2023-03-18T05:50:34.452Z,962.00
2023-03-18T05:51:24.456Z,962.04
2023-03-18T05:52:14.449Z,962.05
2023-03-18T05:53:04.421Z,962.04
2023-03-18T05:53:54.450Z,962.04
2023-03-18T05:54:44.420Z,962.05
2023-03-18T05:55:34.555Z,962.01
2023-03-18T05:56:24.383Z,962.08
2023-03-18T05:57:14.401Z,962.06
2023-03-18T05:58:04.386Z,962.08
2023-03-18T05:58:54.392Z,962.11
2023-03-18T05:59:44.369Z,962.10
2023-03-18T06:00:34.350Z,962.10
2023-03-18T06:01:25.864Z,962.09
2023-03-18T06:02:14.381Z,962.15
2023-03-18T06:03:04.398Z,962.13
2023-03-18T06:03:54.320Z,962.14
2023-03-18T06:04:44.302Z,962.09
2023-03-18T06:05:34.809Z,962.16
2023-03-18T06:06:24.294Z,962.15
2023-03-18T06:07:14.296Z,962.16
2023-03-18T06:08:04.295Z,962.16
2023-03-18T06:08:54.271Z,962.14
2023-03-18T06:09:44.250Z,962.14
2023-03-18T06:10:34.231Z,962.16
2023-03-18T06:11:24.255Z,962.17
2023-03-18T06:12:14.232Z,962.21
2023-03-18T06:13:04.230Z,962.19
2023-03-18T06:13:54.200Z,962.22
2023-03-18T06:14:44.196Z,962.26
2023-03-18T06:15:34.310Z,962.24
2023-03-18T06:16:24.244Z,962.27
2023-03-18T06:17:14.206Z,962.28
2023-03-18T06:18:04.207Z,962.28
2023-03-18T06:18:54.149Z,962.30
2023-03-18T06:19:44.140Z,962.31
2023-03-18T06:20:34.130Z,962.33
2023-03-18T06:21:24.125Z,962.32
2023-03-18T06:22:14.125Z,962.28
2023-03-18T06:23:04.097Z,962.30
2023-03-18T06:23:54.102Z,962.25
2023-03-18T06:24:44.126Z,962.29
2023-03-18T06:25:34.451Z,962.36
2023-03-18T06:26:24.065Z,962.27
2023-03-18T06:27:14.098Z,962.32
2023-03-18T06:28:04.067Z,962.31
2023-03-18T06:28:54.071Z,962.30
2023-03-18T06:29:44.043Z,962.29
2023-03-18T06:30:34.046Z,962.33
2023-03-18T06:31:24.194Z,962.32
2023-03-18T06:32:14.029Z,962.27
2023-03-18T06:33:04.044Z,962.30
2023-03-18T06:33:53.999Z,962.32
2023-03-18T06:34:43.977Z,962.26
2023-03-18T06:35:34.321Z,962.29
2023-03-18T06:36:23.975Z,962.27
2023-03-18T06:37:13.967Z,962.26
2023-03-18T06:38:03.963Z,962.28
2023-03-18T06:38:53.928Z,962.25
2023-03-18T06:39:43.926Z,962.28
2023-03-18T06:40:33.917Z,962.29
2023-03-18T06:41:23.921Z,962.28
2023-03-18T06:42:13.901Z,962.23
2023-03-18T06:43:03.905Z,962.25
2023-03-18T06:43:53.917Z,962.25
2023-03-18T06:44:43.875Z,962.29
2023-03-18T06:45:34.186Z,962.28
2023-03-18T06:46:23.928Z,962.27
2023-03-18T06:47:13.837Z,962.27
2023-03-18T06:48:03.817Z,962.24
2023-03-18T06:48:53.840Z,962.24
2023-03-18T06:49:43.827Z,962.30
2023-03-18T06:50:33.806Z,962.24
2023-03-18T06:51:23.819Z,962.27
2023-03-18T06:52:13.776Z,962.27
2023-03-18T06:53:03.785Z,962.29
2023-03-18T06:53:53.775Z,962.28
2023-03-18T06:54:43.768Z,962.27
2023-03-18T06:55:34.142Z,962.23
2023-03-18T06:56:23.760Z,962.27
2023-03-18T06:57:13.768Z,962.23
2023-03-18T06:58:03.732Z,962.25
2023-03-18T06:58:53.712Z,962.28
2023-03-18T06:59:43.720Z,962.30
2023-03-18T07:00:33.727Z,962.29
2023-03-18T07:01:23.728Z,962.28
2023-03-18T07:02:13.705Z,962.25
2023-03-18T07:03:03.665Z,962.29
2023-03-18T07:03:53.672Z,962.30
2023-03-18T07:04:43.694Z,962.29
2023-03-18T07:05:34.082Z,962.24
2023-03-18T07:06:23.623Z,962.21
2023-03-18T07:07:13.616Z,962.24
2023-03-18T07:08:03.621Z,962.25
2023-03-18T07:08:53.604Z,962.24
2023-03-18T07:09:43.602Z,962.22
2023-03-18T07:10:33.591Z,962.25
2023-03-18T07:11:23.590Z,962.24
2023-03-18T07:12:13.558Z,962.20
2023-03-18T07:13:03.569Z,962.22
2023-03-18T07:13:53.541Z,962.26
2023-03-18T07:14:43.533Z,962.22
2023-03-18T07:15:33.650Z,962.21
2023-03-18T07:16:23.573Z,962.23
2023-03-18T07:17:13.510Z,962.27
2023-03-18T07:18:03.512Z,962.22
2023-03-18T07:18:53.502Z,962.22
2023-03-18T07:19:43.498Z,962.23
2023-03-18T07:20:33.515Z,962.21
2023-03-18T07:21:23.548Z,962.24
2023-03-18T07:22:13.484Z,962.26
2023-03-18T07:23:03.453Z,962.26
2023-03-18T07:23:53.437Z,962.28
2023-03-18T07:24:43.449Z,962.30
2023-03-18T07:25:33.776Z,962.26
2023-03-18T07:26:23.418Z,962.29
2023-03-18T07:27:13.416Z,962.23
2023-03-18T07:28:03.387Z,962.27
2023-03-18T07:28:53.403Z,962.24
2023-03-18T07:29:43.373Z,962.27
2023-03-18T07:30:33.383Z,962.26
2023-03-18T07:31:23.418Z,962.27
2023-03-18T07:32:13.345Z,962.34
2023-03-18T07:33:03.358Z,962.26
2023-03-18T07:33:53.355Z,962.31
2023-03-18T07:34:43.323Z,962.29
2023-03-18T07:35:33.567Z,962.35
2023-03-18T07:36:23.314Z,962.34
2023-03-18T07:37:13.283Z,962.34
2023-03-18T07:38:03.302Z,962.34
2023-03-18T07:38:53.276Z,962.36
2023-03-18T07:39:43.266Z,962.32
2023-03-18T07:40:33.265Z,962.29
2023-03-18T07:41:23.237Z,962.33
2023-03-18T07:42:13.347Z,962.34
2023-03-18T07:43:03.237Z,962.36
2023-03-18T07:43:53.210Z,962.34
2023-03-18T07:44:43.209Z,962.33
2023-03-18T07:45:33.542Z,962.30
2023-03-18T07:46:23.275Z,962.29
2023-03-18T07:47:13.282Z,962.32
2023-03-18T07:48:03.192Z,962.27
2023-03-18T07:48:53.162Z,962.22
2023-03-18T07:49:43.193Z,962.22
2023-03-18T07:50:33.152Z,962.25
2023-03-18T07:51:23.156Z,962.21
2023-03-18T07:52:13.119Z,962.26
2023-03-18T07:53:03.116Z,962.19
2023-03-18T07:53:53.113Z,962.20
2023-03-18T07:54:43.108Z,962.22
2023-03-18T07:55:33.468Z,962.20
2023-03-18T07:56:23.092Z,962.21
2023-03-18T07:57:13.123Z,962.16
2023-03-18T07:58:03.063Z,962.18
2023-03-18T07:58:53.059Z,962.22
2023-03-18T07:59:43.047Z,962.18
2023-03-18T08:00:33.033Z,962.19
2023-03-18T08:01:23.031Z,962.10
2023-03-18T08:02:13.015Z,962.14
2023-03-18T08:03:03.009Z,962.15
2023-03-18T08:03:53.021Z,962.13
2023-03-18T08:04:43.052Z,962.09
2023-03-18T08:05:33.203Z,962.11
2023-03-18T08:06:22.973Z,962.13
2023-03-18T08:07:12.950Z,962.12
2023-03-18T08:08:02.969Z,962.12
2023-03-18T08:08:52.955Z,962.13
2023-03-18T08:09:42.931Z,962.14
2023-03-18T08:10:32.938Z,962.16
2023-03-18T08:11:22.910Z,962.14
2023-03-18T08:12:12.915Z,962.12
2023-03-18T08:13:02.902Z,962.15
2023-03-18T08:13:53.087Z,962.13
2023-03-18T08:14:42.879Z,962.12
2023-03-18T08:15:33.191Z,962.19
2023-03-18T08:16:22.914Z,962.12
2023-03-18T08:17:12.839Z,962.12
2023-03-18T08:18:02.830Z,962.11
2023-03-18T08:18:52.818Z,962.17
2023-03-18T08:19:42.845Z,962.12
2023-03-18T08:20:32.795Z,962.12
2023-03-18T08:21:22.830Z,962.10
2023-03-18T08:22:12.835Z,962.12
2023-03-18T08:23:02.815Z,962.16
2023-03-18T08:23:52.760Z,962.14
2023-03-18T08:24:45.142Z,962.13
2023-03-18T08:25:33.096Z,962.11
2023-03-18T08:26:22.754Z,962.11
2023-03-18T08:27:12.937Z,962.13
2023-03-18T08:28:02.717Z,962.10
2023-03-18T08:28:52.754Z,962.06
2023-03-18T08:29:42.696Z,962.08
2023-03-18T08:30:32.705Z,962.08
2023-03-18T08:31:22.730Z,961.96
2023-03-18T08:32:12.686Z,961.96
2023-03-18T08:33:02.751Z,961.93
2023-03-18T08:33:52.662Z,961.94
2023-03-18T08:34:42.666Z,961.95
2023-03-18T08:35:32.949Z,961.95
2023-03-18T08:36:22.629Z,961.93
2023-03-18T08:37:12.614Z,961.92
2023-03-18T08:38:02.645Z,961.88
2023-03-18T08:38:52.585Z,961.88
2023-03-18T08:39:42.584Z,961.82
2023-03-18T08:40:32.579Z,961.86
2023-03-18T08:41:22.571Z,961.88
2023-03-18T08:42:12.583Z,961.85
2023-03-18T08:43:02.574Z,961.87
2023-03-18T08:43:52.559Z,961.83
2023-03-18T08:44:42.537Z,961.88
2023-03-18T08:45:32.882Z,961.84
2023-03-18T08:46:22.555Z,961.85
2023-03-18T08:47:12.508Z,961.83
2023-03-18T08:48:02.500Z,961.78
2023-03-18T08:48:52.504Z,961.76
2023-03-18T08:49:42.485Z,961.81
2023-03-18T08:50:32.481Z,961.79
2023-03-18T08:51:22.476Z,961.81
2023-03-18T08:52:12.446Z,961.79
2023-03-18T08:53:02.455Z,961.77
2023-03-18T08:53:52.438Z,961.77
2023-03-18T08:54:42.445Z,961.77
2023-03-18T08:55:32.668Z,961.76
2023-03-18T08:56:22.415Z,961.77
2023-03-18T08:57:12.405Z,961.68
2023-03-18T08:58:02.405Z,961.67
2023-03-18T08:58:52.399Z,961.67
2023-03-18T08:59:42.365Z,961.66
2023-03-18T09:00:32.376Z,961.69
2023-03-18T09:01:22.423Z,961.73
2023-03-18T09:02:12.337Z,961.69
2023-03-18T09:03:02.418Z,961.68
2023-03-18T09:03:52.390Z,961.67
2023-03-18T09:04:42.335Z,961.68
2023-03-18T09:05:32.501Z,961.62
2023-03-18T09:06:22.308Z,961.64
2023-03-18T09:07:12.310Z,961.63
2023-03-18T09:08:02.286Z,961.67
2023-03-18T09:08:52.289Z,961.66
2023-03-18T09:09:44.039Z,961.65
2023-03-18T09:10:32.244Z,961.66
2023-03-18T09:11:22.262Z,961.63
2023-03-18T09:12:12.257Z,961.66
2023-03-18T09:13:02.245Z,961.61
2023-03-18T09:13:52.217Z,961.67
2023-03-18T09:14:42.206Z,961.60
2023-03-18T09:15:32.400Z,961.55
2023-03-18T09:16:22.226Z,961.54
2023-03-18T09:17:12.200Z,961.57
2023-03-18T09:18:11.664Z,961.55
2023-03-18T09:18:53.169Z,961.49
2023-03-18T09:19:42.153Z,961.42
2023-03-18T09:20:32.133Z,961.38
2023-03-18T09:21:22.129Z,961.42
2023-03-18T09:22:12.146Z,961.43
2023-03-18T09:23:02.128Z,961.42
2023-03-18T09:23:52.098Z,961.42
2023-03-18T09:24:42.101Z,961.39
2023-03-18T09:25:32.323Z,961.41
2023-03-18T09:26:22.107Z,961.39
2023-03-18T09:27:12.060Z,961.34
2023-03-18T09:28:02.072Z,961.40
2023-03-18T09:28:52.040Z,961.42
2023-03-18T09:29:42.047Z,961.42
2023-03-18T09:30:32.147Z,961.44
2023-03-18T09:31:22.130Z,961.48
2023-03-18T09:32:12.011Z,961.47
2023-03-18T09:33:02.054Z,961.43
2023-03-18T09:33:51.998Z,961.43
2023-03-18T09:34:41.975Z,961.42
2023-03-18T09:35:32.197Z,961.37
2023-03-18T09:36:21.976Z,961.40
2023-03-18T09:37:11.941Z,961.33
2023-03-18T09:38:01.950Z,961.29
2023-03-18T09:38:51.931Z,961.36
2023-03-18T09:39:41.934Z,961.34
2023-03-18T09:40:32.033Z,961.40
2023-03-18T09:41:21.917Z,961.42
2023-03-18T09:42:11.886Z,961.41
2023-03-18T09:43:01.889Z,961.40
2023-03-18T09:43:51.885Z,961.41
2023-03-18T09:44:41.881Z,961.45
2023-03-18T09:45:32.062Z,961.39
2023-03-18T09:46:22.045Z,961.43
2023-03-18T09:47:11.985Z,961.39
2023-03-18T09:48:01.828Z,961.40
2023-03-18T09:48:51.814Z,961.42
2023-03-18T09:49:41.808Z,961.41
2023-03-18T09:50:31.830Z,961.41
2023-03-18T09:51:21.814Z,961.46
2023-03-18T09:52:11.787Z,961.42
2023-03-18T09:53:01.775Z,961.44
2023-03-18T09:53:51.766Z,961.44
2023-03-18T09:54:41.767Z,961.46
2023-03-18T09:55:31.966Z,961.36
2023-03-18T09:56:21.749Z,961.40
2023-03-18T09:57:11.740Z,961.42
2023-03-18T09:58:01.717Z,961.43
2023-03-18T09:58:51.729Z,961.37
2023-03-18T09:59:41.702Z,961.41
2023-03-18T10:00:31.690Z,961.36
2023-03-18T10:01:21.745Z,961.37
2023-03-18T10:02:11.686Z,961.39
2023-03-18T10:03:02.003Z,961.44
2023-03-18T10:03:51.689Z,961.42
2023-03-18T10:04:41.643Z,961.39
2023-03-18T10:05:31.922Z,961.39
2023-03-18T10:06:21.626Z,961.36
2023-03-18T10:07:11.625Z,961.37
2023-03-18T10:08:01.614Z,961.37
2023-03-18T10:08:51.585Z,961.38
2023-03-18T10:09:41.577Z,961.40
2023-03-18T10:10:31.576Z,961.40
2023-03-18T10:11:21.565Z,961.38
2023-03-18T10:12:11.549Z,961.36
2023-03-18T10:13:01.573Z,961.38
2023-03-18T10:13:51.539Z,961.40
2023-03-18T10:14:41.553Z,961.37
2023-03-18T10:15:31.862Z,961.38
2023-03-18T10:16:21.581Z,961.40
2023-03-18T10:17:11.496Z,961.39
2023-03-18T10:18:01.498Z,961.41
2023-03-18T10:18:51.489Z,961.43
2023-03-18T10:19:41.477Z,961.36
2023-03-18T10:20:31.534Z,961.39
2023-03-18T10:21:21.464Z,961.41
2023-03-18T10:22:11.467Z,961.41
2023-03-18T10:23:01.435Z,961.32
2023-03-18T10:23:51.434Z,961.38